createdAt,value
2023-10-30T00:00:25.346Z,46.08
2023-10-30T00:01:25.401Z,45.92
2023-10-30T00:02:25.357Z,45.44
2023-10-30T00:03:25.449Z,45.76
2023-10-30T00:04:25.450Z,46.08
2023-10-30T00:05:25.323Z,46.73
2023-10-30T00:06:25.317Z,46.57
2023-10-30T00:07:25.293Z,46.08
2023-10-30T00:08:25.324Z,45.76
2023-10-30T00:09:25.336Z,45.44
2023-10-30T00:10:25.300Z,46.25
2023-10-30T00:11:27.120Z,46.89
2023-10-30T00:12:25.330Z,47.37
2023-10-30T00:13:25.285Z,46.57
2023-10-30T00:14:25.240Z,47.21
2023-10-30T00:15:25.268Z,47.05
2023-10-30T00:16:25.309Z,47.86
2023-10-30T00:17:25.235Z,47.21
2023-10-30T00:18:25.243Z,46.89
2023-10-30T00:19:25.244Z,46.57
2023-10-30T00:20:25.238Z,47.37
2023-10-30T00:21:25.253Z,45.76
2023-10-30T00:22:25.241Z,46.41
2023-10-30T00:23:25.200Z,46.25
2023-10-30T00:24:25.389Z,46.25
2023-10-30T00:25:25.194Z,48.66
2023-10-30T00:26:25.163Z,46.57
2023-10-30T00:27:25.258Z,45.76
2023-10-30T00:28:25.172Z,46.89
2023-10-30T00:29:25.183Z,46.25
2023-10-30T00:30:25.175Z,46.73
2023-10-30T00:31:25.214Z,46.57
2023-10-30T00:32:25.252Z,47.53
2023-10-30T00:33:25.158Z,46.25
2023-10-30T00:34:25.147Z,46.25
2023-10-30T00:35:25.114Z,49.47
2023-10-30T00:36:25.168Z,46.73
2023-10-30T00:37:25.094Z,46.41
2023-10-30T00:38:25.091Z,46.08
2023-10-30T00:39:25.118Z,45.92
2023-10-30T00:40:25.082Z,46.25
2023-10-30T00:41:25.127Z,47.05
2023-10-30T00:42:25.103Z,46.89
2023-10-30T00:43:25.080Z,46.73
2023-10-30T00:44:25.087Z,46.73
2023-10-30T00:45:25.099Z,47.21
2023-10-30T00:46:25.124Z,46.89
2023-10-30T00:47:25.061Z,46.25
2023-10-30T00:48:25.078Z,46.57
2023-10-30T00:49:25.033Z,46.73
2023-10-30T00:50:25.080Z,47.37
2023-10-30T00:51:25.043Z,48.02
2023-10-30T00:52:25.055Z,45.76
2023-10-30T00:53:25.005Z,46.08
2023-10-30T00:54:25.025Z,46.08
2023-10-30T00:55:25.003Z,45.76
2023-10-30T00:56:24.955Z,45.44
2023-10-30T00:57:25.029Z,45.60
2023-10-30T00:58:24.968Z,45.44
2023-10-30T00:59:25.014Z,46.57
2023-10-30T01:00:25.018Z,47.05
2023-10-30T01:01:24.950Z,45.76
2023-10-30T01:02:25.095Z,45.60
2023-10-30T01:03:25.224Z,45.92
2023-10-30T01:04:25.129Z,45.76
2023-10-30T01:05:24.980Z,45.92
2023-10-30T01:06:24.932Z,46.25
2023-10-30T01:07:24.918Z,45.60
2023-10-30T01:08:24.907Z,46.08
2023-10-30T01:09:24.938Z,46.08
2023-10-30T01:10:24.884Z,46.08
2023-10-30T01:11:24.888Z,46.25
2023-10-30T01:12:24.953Z,45.28
2023-10-30T01:13:24.895Z,45.28
2023-10-30T01:14:24.893Z,46.08
2023-10-30T01:15:24.915Z,45.92
2023-10-30T01:16:24.893Z,45.76
2023-10-30T01:17:24.886Z,45.92
2023-10-30T01:18:24.891Z,46.08
2023-10-30T01:19:24.842Z,46.08
2023-10-30T01:20:24.862Z,45.92
2023-10-30T01:21:24.871Z,45.76
2023-10-30T01:22:24.814Z,45.76
2023-10-30T01:23:24.820Z,46.08
2023-10-30T01:24:24.858Z,46.41
2023-10-30T01:25:24.815Z,45.76
2023-10-30T01:26:24.829Z,46.08
2023-10-30T01:27:24.841Z,45.92
2023-10-30T01:28:24.838Z,45.92
2023-10-30T01:29:24.822Z,46.25
2023-10-30T01:30:24.816Z,46.08
2023-10-30T01:31:24.750Z,46.41
2023-10-30T01:32:24.762Z,45.92
2023-10-30T01:33:24.893Z,46.41
2023-10-30T01:34:24.850Z,47.37
2023-10-30T01:35:24.791Z,45.60
2023-10-30T01:36:24.839Z,46.25
2023-10-30T01:37:24.720Z,46.08
2023-10-30T01:38:24.706Z,45.76
2023-10-30T01:39:24.818Z,45.92
2023-10-30T01:40:25.939Z,46.08
2023-10-30T01:41:24.703Z,46.25
2023-10-30T01:42:24.728Z,46.41
2023-10-30T01:43:24.679Z,46.41
2023-10-30T01:44:24.705Z,46.41
2023-10-30T01:45:24.699Z,46.08
2023-10-30T01:46:24.674Z,46.41
2023-10-30T01:47:24.663Z,45.60
2023-10-30T01:48:24.698Z,45.76
2023-10-30T01:49:24.669Z,45.60
2023-10-30T01:50:24.679Z,46.25
2023-10-30T01:51:24.660Z,47.21
2023-10-30T01:52:24.638Z,46.25
2023-10-30T01:53:24.615Z,46.57
2023-10-30T01:54:24.642Z,45.76
2023-10-30T01:55:24.646Z,46.73
2023-10-30T01:56:24.598Z,46.25
2023-10-30T01:57:25.621Z,46.08
2023-10-30T01:58:24.592Z,46.41
2023-10-30T01:59:24.581Z,46.08
2023-10-30T02:00:24.609Z,46.57
2023-10-30T02:01:24.626Z,46.08
2023-10-30T02:02:24.566Z,45.60
2023-10-30T02:03:24.708Z,45.60
2023-10-30T02:04:24.561Z,46.08
2023-10-30T02:05:24.583Z,46.89
2023-10-30T02:06:24.630Z,47.05
2023-10-30T02:07:24.536Z,46.41
2023-10-30T02:08:24.597Z,45.92
2023-10-30T02:09:24.582Z,46.08
2023-10-30T02:10:24.539Z,46.25
2023-10-30T02:11:24.497Z,47.05
2023-10-30T02:12:24.556Z,46.41
2023-10-30T02:13:24.486Z,46.25
2023-10-30T02:14:24.488Z,46.25
2023-10-30T02:15:24.513Z,46.08
2023-10-30T02:16:24.500Z,46.41
2023-10-30T02:17:24.507Z,46.25
2023-10-30T02:18:24.551Z,46.57
2023-10-30T02:19:24.458Z,46.25
2023-10-30T02:20:24.468Z,47.53
2023-10-30T02:21:24.469Z,46.08
2023-10-30T02:22:24.453Z,46.25
2023-10-30T02:23:24.422Z,46.41
2023-10-30T02:24:24.484Z,45.76
2023-10-30T02:25:24.417Z,46.25
2023-10-30T02:26:24.405Z,46.41
2023-10-30T02:27:24.454Z,46.08
2023-10-30T02:28:24.378Z,47.37
2023-10-30T02:29:24.374Z,46.73
2023-10-30T02:30:24.441Z,46.41
2023-10-30T02:31:24.376Z,46.73
2023-10-30T02:32:24.397Z,46.57
2023-10-30T02:33:24.445Z,46.25
2023-10-30T02:34:24.427Z,47.86
2023-10-30T02:35:24.377Z,46.41
2023-10-30T02:36:24.334Z,46.08
2023-10-30T02:37:24.343Z,47.37
2023-10-30T02:38:24.332Z,46.41
2023-10-30T02:39:24.366Z,46.41
2023-10-30T02:40:24.338Z,46.73
2023-10-30T02:41:24.317Z,46.08
2023-10-30T02:42:24.341Z,46.57
2023-10-30T02:43:24.319Z,46.89
2023-10-30T02:44:24.287Z,46.41
2023-10-30T02:45:24.295Z,46.89
2023-10-30T02:46:24.343Z,47.21
2023-10-30T02:47:24.272Z,46.41
2023-10-30T02:48:24.326Z,46.57
2023-10-30T02:49:24.249Z,46.57
2023-10-30T02:50:24.252Z,47.37
2023-10-30T02:51:24.226Z,47.86
2023-10-30T02:52:24.240Z,46.57
2023-10-30T02:53:24.254Z,46.73
2023-10-30T02:54:24.251Z,46.73
2023-10-30T02:55:24.259Z,46.57
2023-10-30T02:56:24.205Z,46.41
2023-10-30T02:57:24.246Z,46.89
2023-10-30T02:58:24.215Z,46.89
2023-10-30T02:59:24.228Z,46.41
2023-10-30T03:00:24.256Z,46.89
2023-10-30T03:01:24.168Z,46.73
2023-10-30T03:02:24.234Z,46.57
2023-10-30T03:03:24.298Z,45.92
2023-10-30T03:04:24.263Z,46.25
2023-10-30T03:05:24.156Z,46.41
2023-10-30T03:06:24.204Z,46.57
2023-10-30T03:07:24.158Z,45.92
2023-10-30T03:08:24.123Z,45.92
2023-10-30T03:09:24.168Z,46.25
2023-10-30T03:10:24.123Z,46.25
2023-10-30T03:11:24.119Z,46.57
2023-10-30T03:12:24.169Z,47.86
2023-10-30T03:13:24.112Z,46.73
2023-10-30T03:14:24.085Z,46.25
2023-10-30T03:15:24.192Z,46.73
2023-10-30T03:16:24.098Z,46.57
2023-10-30T03:17:24.097Z,46.25
2023-10-30T03:18:24.133Z,46.25
2023-10-30T03:19:24.074Z,46.25
2023-10-30T03:20:24.071Z,46.08
2023-10-30T03:21:24.072Z,46.41
2023-10-30T03:22:24.078Z,45.92
2023-10-30T03:23:24.025Z,46.41
2023-10-30T03:24:24.080Z,46.73
2023-10-30T03:25:24.061Z,47.70
2023-10-30T03:26:24.034Z,47.37
2023-10-30T03:27:24.147Z,47.05
2023-10-30T03:28:24.012Z,46.57
2023-10-30T03:29:23.988Z,46.89
2023-10-30T03:30:24.038Z,47.05
2023-10-30T03:31:24.026Z,47.53
2023-10-30T03:32:24.026Z,47.53
2023-10-30T03:33:23.990Z,46.57
2023-10-30T03:34:23.989Z,46.41
2023-10-30T03:35:23.979Z,46.89
2023-10-30T03:36:24.025Z,46.89
2023-10-30T03:37:23.937Z,48.34
2023-10-30T03:38:24.945Z,46.41
2023-10-30T03:39:23.958Z,46.41
2023-10-30T03:40:23.968Z,46.25
2023-10-30T03:41:23.931Z,46.25
2023-10-30T03:42:23.939Z,46.25
2023-10-30T03:43:23.919Z,47.53
2023-10-30T03:44:23.903Z,48.34
2023-10-30T03:45:23.995Z,47.86
2023-10-30T03:46:23.945Z,48.50
2023-10-30T03:47:23.896Z,46.57
2023-10-30T03:48:23.965Z,46.57
2023-10-30T03:49:23.915Z,46.89
2023-10-30T03:50:23.904Z,46.73
2023-10-30T03:51:23.940Z,48.82
2023-10-30T03:52:23.937Z,47.86
2023-10-30T03:53:23.860Z,48.66
2023-10-30T03:54:23.894Z,47.53
2023-10-30T03:55:23.874Z,46.73
2023-10-30T03:56:23.907Z,46.89
2023-10-30T03:57:23.925Z,46.41
2023-10-30T03:58:23.838Z,46.57
2023-10-30T03:59:23.823Z,47.53
2023-10-30T04:00:23.830Z,46.73
2023-10-30T04:01:24.508Z,47.37
2023-10-30T04:02:24.836Z,46.73
2023-10-30T04:03:24.017Z,45.92
2023-10-30T04:04:23.955Z,47.86
2023-10-30T04:05:23.804Z,46.57
2023-10-30T04:06:23.837Z,48.66
2023-10-30T04:07:23.775Z,46.73
2023-10-30T04:08:23.800Z,48.34
2023-10-30T04:09:23.828Z,47.21
2023-10-30T04:10:23.781Z,47.70
2023-10-30T04:11:23.759Z,46.57
2023-10-30T04:12:23.763Z,47.70
2023-10-30T04:13:23.774Z,47.70
2023-10-30T04:14:23.737Z,48.18
2023-10-30T04:15:23.737Z,49.31
2023-10-30T04:16:23.811Z,46.73
2023-10-30T04:17:23.767Z,48.02
2023-10-30T04:18:23.756Z,47.70
2023-10-30T04:19:23.715Z,48.34
2023-10-30T04:20:23.735Z,48.98
2023-10-30T04:21:23.800Z,48.82
2023-10-30T04:22:23.759Z,49.15
2023-10-30T04:23:23.685Z,50.76
2023-10-30T04:24:23.844Z,48.02
2023-10-30T04:25:23.725Z,49.79
2023-10-30T04:26:23.680Z,49.79
2023-10-30T04:27:24.701Z,50.60
2023-10-30T04:28:23.676Z,51.24
2023-10-30T04:29:23.765Z,50.43
2023-10-30T04:30:23.697Z,49.47
2023-10-30T04:31:23.712Z,48.98
2023-10-30T04:32:23.682Z,48.82
2023-10-30T04:33:23.686Z,50.11
2023-10-30T04:34:23.613Z,49.79
2023-10-30T04:35:23.621Z,51.24
2023-10-30T04:36:23.633Z,48.82
2023-10-30T04:37:23.649Z,49.31
2023-10-30T04:38:23.638Z,49.79
2023-10-30T04:39:23.695Z,54.79
2023-10-30T04:40:23.622Z,57.85
2023-10-30T04:41:23.626Z,57.69
2023-10-30T04:42:23.634Z,58.01
2023-10-30T04:43:23.614Z,58.65
2023-10-30T04:44:23.571Z,58.01
2023-10-30T04:45:23.621Z,58.17
2023-10-30T04:46:23.596Z,58.65
2023-10-30T04:47:23.554Z,59.30
2023-10-30T04:48:23.685Z,57.36
2023-10-30T04:49:23.541Z,58.01
2023-10-30T04:50:23.568Z,58.17
2023-10-30T04:51:23.545Z,50.60
2023-10-30T04:52:23.528Z,48.66
2023-10-30T04:53:23.550Z,48.50
2023-10-30T04:54:23.594Z,48.02
2023-10-30T04:55:23.496Z,49.31
2023-10-30T04:56:23.513Z,50.60
2023-10-30T04:57:23.538Z,50.92
2023-10-30T04:58:23.565Z,51.24
2023-10-30T04:59:23.494Z,47.86
2023-10-30T05:00:23.538Z,51.08
2023-10-30T05:01:23.554Z,48.50
2023-10-30T05:02:23.465Z,51.56
2023-10-30T05:03:23.515Z,49.95
2023-10-30T05:04:23.469Z,48.50
2023-10-30T05:05:23.480Z,50.43
2023-10-30T05:06:23.517Z,49.79
2023-10-30T05:07:23.475Z,49.15
2023-10-30T05:08:23.491Z,51.72
2023-10-30T05:09:23.464Z,50.76
2023-10-30T05:10:23.428Z,50.92
2023-10-30T05:11:23.427Z,51.72
2023-10-30T05:12:23.452Z,50.43
2023-10-30T05:13:23.409Z,53.01
2023-10-30T05:14:23.396Z,49.95
2023-10-30T05:15:23.460Z,49.31
2023-10-30T05:16:23.432Z,48.50
2023-10-30T05:17:23.383Z,52.05
2023-10-30T05:18:23.459Z,48.02
2023-10-30T05:19:23.382Z,50.11
2023-10-30T05:20:23.354Z,48.82
2023-10-30T05:21:23.379Z,52.21
2023-10-30T05:22:23.350Z,52.69
2023-10-30T05:23:23.390Z,49.47
2023-10-30T05:24:23.332Z,51.56
2023-10-30T05:25:31.952Z,51.88
2023-10-30T05:26:25.337Z,50.43
2023-10-30T05:27:23.428Z,50.92
2023-10-30T05:28:26.460Z,53.01
2023-10-30T05:29:24.320Z,51.40
2023-10-30T05:30:23.351Z,53.82
2023-10-30T05:31:23.474Z,52.85
2023-10-30T05:32:23.279Z,52.05
2023-10-30T05:33:23.412Z,53.33
2023-10-30T05:34:23.353Z,54.79
2023-10-30T05:35:23.333Z,54.62
2023-10-30T05:36:23.298Z,54.62
2023-10-30T05:37:23.280Z,50.27
2023-10-30T05:38:23.267Z,50.92
2023-10-30T05:39:23.303Z,51.08
2023-10-30T05:40:23.262Z,49.63
2023-10-30T05:41:23.262Z,53.82
2023-10-30T05:42:23.323Z,50.43
2023-10-30T05:43:23.256Z,53.33
2023-10-30T05:44:23.219Z,52.37
2023-10-30T05:45:23.275Z,53.33
2023-10-30T05:46:23.204Z,51.56
2023-10-30T05:47:23.198Z,53.50
2023-10-30T05:48:23.224Z,53.33
2023-10-30T05:49:23.185Z,53.82
2023-10-30T05:50:23.195Z,52.53
2023-10-30T05:51:23.185Z,51.40
2023-10-30T05:52:23.152Z,53.17
2023-10-30T05:53:23.171Z,51.72
2023-10-30T05:54:23.182Z,53.50
2023-10-30T05:55:23.154Z,53.01
2023-10-30T05:56:23.177Z,55.11
2023-10-30T05:57:23.226Z,54.79
2023-10-30T05:58:23.114Z,54.62
2023-10-30T05:59:23.112Z,53.66
2023-10-30T06:00:23.126Z,52.85
2023-10-30T06:01:23.157Z,50.43
2023-10-30T06:02:23.110Z,53.66
2023-10-30T06:03:23.100Z,57.52
2023-10-30T06:04:23.110Z,53.33
2023-10-30T06:05:23.105Z,53.50
2023-10-30T06:06:23.110Z,52.21
2023-10-30T06:07:23.091Z,53.33
2023-10-30T06:08:23.063Z,53.98
2023-10-30T06:09:23.068Z,52.05
2023-10-30T06:10:23.097Z,54.46
2023-10-30T06:11:23.060Z,51.88
2023-10-30T06:12:23.130Z,53.33
2023-10-30T06:13:23.013Z,51.88
2023-10-30T06:14:23.035Z,52.69
2023-10-30T06:15:23.189Z,54.79
2023-10-30T06:16:23.078Z,52.05
2023-10-30T06:17:23.099Z,53.01
2023-10-30T06:18:23.085Z,52.21
2023-10-30T06:19:23.001Z,53.66
2023-10-30T06:20:23.134Z,55.75
2023-10-30T06:21:23.114Z,55.59
2023-10-30T06:22:23.055Z,52.85
2023-10-30T06:23:22.988Z,55.75
2023-10-30T06:24:23.027Z,57.04
2023-10-30T06:25:22.947Z,53.82
2023-10-30T06:26:22.970Z,53.01
2023-10-30T06:27:23.009Z,54.30
2023-10-30T06:28:22.955Z,56.07
2023-10-30T06:29:22.910Z,53.17
2023-10-30T06:30:23.041Z,55.27
2023-10-30T06:31:23.984Z,54.14
2023-10-30T06:32:22.914Z,54.79
2023-10-30T06:33:23.016Z,54.46
2023-10-30T06:34:22.907Z,53.66
2023-10-30T06:35:22.925Z,54.95
2023-10-30T06:36:22.969Z,53.98
2023-10-30T06:37:22.972Z,54.14
2023-10-30T06:38:22.911Z,54.30
2023-10-30T06:39:22.936Z,56.40
2023-10-30T06:40:22.937Z,56.24
2023-10-30T06:41:22.853Z,55.43
2023-10-30T06:42:22.855Z,55.91
2023-10-30T06:43:22.881Z,53.50
2023-10-30T06:44:22.825Z,51.08
2023-10-30T06:45:22.840Z,52.53
2023-10-30T06:46:22.919Z,53.01
2023-10-30T06:47:22.862Z,55.27
2023-10-30T06:48:22.836Z,53.50
2023-10-30T06:49:22.884Z,56.07
2023-10-30T06:50:23.060Z,54.62
2023-10-30T06:51:22.802Z,54.62
2023-10-30T06:52:22.804Z,55.59
2023-10-30T06:53:22.786Z,55.11
2023-10-30T06:54:22.781Z,54.95
2023-10-30T06:55:22.762Z,54.62
2023-10-30T06:56:22.800Z,54.79
2023-10-30T06:57:22.913Z,53.17
2023-10-30T06:58:22.973Z,53.98
2023-10-30T06:59:23.852Z,54.30
2023-10-30T07:00:23.111Z,54.62
2023-10-30T07:01:23.728Z,53.98
2023-10-30T07:02:24.225Z,54.30
2023-10-30T07:03:22.941Z,52.53
2023-10-30T07:04:23.648Z,51.56
2023-10-30T07:05:22.706Z,51.72
2023-10-30T07:06:22.777Z,50.11
2023-10-30T07:07:22.690Z,54.46
2023-10-30T07:08:22.724Z,52.05
2023-10-30T07:09:22.770Z,53.17
2023-10-30T07:10:22.699Z,52.53
2023-10-30T07:11:22.671Z,48.66
2023-10-30T07:12:22.709Z,51.72
2023-10-30T07:13:22.693Z,52.37
2023-10-30T07:14:22.672Z,51.08
2023-10-30T07:15:22.726Z,49.31
2023-10-30T07:16:22.646Z,52.05
2023-10-30T07:17:22.770Z,52.53
2023-10-30T07:18:22.697Z,52.37
2023-10-30T07:19:22.644Z,55.11
2023-10-30T07:20:22.637Z,53.98
2023-10-30T07:21:22.632Z,52.05
2023-10-30T07:22:22.603Z,50.92
2023-10-30T07:23:22.672Z,54.62
2023-10-30T07:24:22.629Z,54.62
2023-10-30T07:25:22.630Z,51.72
2023-10-30T07:26:22.577Z,51.56
2023-10-30T07:27:22.660Z,50.76
2023-10-30T07:28:22.639Z,51.56
2023-10-30T07:29:22.584Z,53.33
2023-10-30T07:30:22.651Z,55.11
2023-10-30T07:31:22.598Z,53.01
2023-10-30T07:32:22.547Z,50.43
2023-10-30T07:33:22.555Z,52.85
2023-10-30T07:34:22.603Z,52.21
2023-10-30T07:35:22.553Z,53.01
2023-10-30T07:36:22.625Z,53.33
2023-10-30T07:37:22.519Z,51.72
2023-10-30T07:38:22.556Z,53.50
2023-10-30T07:39:22.532Z,53.01
2023-10-30T07:40:22.553Z,53.66
2023-10-30T07:41:22.620Z,55.27
2023-10-30T07:42:22.541Z,53.50
2023-10-30T07:43:22.499Z,54.95
2023-10-30T07:44:22.560Z,52.69
2023-10-30T07:45:22.656Z,53.50
2023-10-30T07:46:22.583Z,53.01
2023-10-30T07:47:33.168Z,54.46
2023-10-30T07:48:24.513Z,52.05
2023-10-30T07:49:22.479Z,48.98
2023-10-30T07:50:22.449Z,49.15
2023-10-30T07:51:22.578Z,50.27
2023-10-30T07:52:22.465Z,53.50
2023-10-30T07:53:22.439Z,54.46
2023-10-30T07:54:22.572Z,54.62
2023-10-30T07:55:22.433Z,52.53
2023-10-30T07:56:22.442Z,53.17
2023-10-30T07:57:22.475Z,55.11
2023-10-30T07:58:22.392Z,53.01
2023-10-30T07:59:22.417Z,53.66
2023-10-30T08:00:22.499Z,51.24
2023-10-30T08:01:22.536Z,55.11
2023-10-30T08:02:22.384Z,53.33
2023-10-30T08:03:22.496Z,53.98
2023-10-30T08:04:22.519Z,52.05
2023-10-30T08:05:22.400Z,51.56
2023-10-30T08:06:22.388Z,49.79
2023-10-30T08:07:22.405Z,51.56
2023-10-30T08:08:22.362Z,52.85
2023-10-30T08:09:22.368Z,52.69
2023-10-30T08:10:22.373Z,53.82
2023-10-30T08:11:22.317Z,53.01
2023-10-30T08:12:22.421Z,49.95
2023-10-30T08:13:22.313Z,50.43
2023-10-30T08:14:22.340Z,53.50
2023-10-30T08:15:22.302Z,51.08
2023-10-30T08:16:22.338Z,52.05
2023-10-30T08:17:22.318Z,53.33
2023-10-30T08:18:22.290Z,52.05
2023-10-30T08:19:22.317Z,53.17
2023-10-30T08:20:22.269Z,51.72
2023-10-30T08:21:22.289Z,49.63
2023-10-30T08:22:22.259Z,50.76
2023-10-30T08:23:22.261Z,51.24
2023-10-30T08:24:22.259Z,51.56
2023-10-30T08:25:22.258Z,52.53
2023-10-30T08:26:22.243Z,48.82
2023-10-30T08:27:22.275Z,51.88
2023-10-30T08:28:22.245Z,50.76
2023-10-30T08:29:22.313Z,51.40
2023-10-30T08:30:22.246Z,53.50
2023-10-30T08:31:22.246Z,52.05
2023-10-30T08:32:22.188Z,51.56
2023-10-30T08:33:22.200Z,51.88
2023-10-30T08:34:22.247Z,51.40
2023-10-30T08:35:23.028Z,55.91
2023-10-30T08:36:23.175Z,52.69
2023-10-30T08:37:22.186Z,52.85
2023-10-30T08:38:22.203Z,52.69
2023-10-30T08:39:22.185Z,52.37
2023-10-30T08:40:22.142Z,55.91
2023-10-30T08:41:22.127Z,55.11
2023-10-30T08:42:22.190Z,55.59
2023-10-30T08:43:22.146Z,54.95
2023-10-30T08:44:24.473Z,53.82
2023-10-30T08:45:23.122Z,54.46
2023-10-30T08:46:22.166Z,53.82
2023-10-30T08:47:22.129Z,52.37
2023-10-30T08:48:22.185Z,52.85
2023-10-30T08:49:22.098Z,55.43
2023-10-30T08:50:23.300Z,54.79
2023-10-30T08:51:22.142Z,55.59
2023-10-30T08:52:22.094Z,53.66
2023-10-30T08:53:22.098Z,52.53
2023-10-30T08:54:22.147Z,52.69
2023-10-30T08:55:22.087Z,51.72
2023-10-30T08:56:22.080Z,52.69
2023-10-30T08:57:22.127Z,53.66
2023-10-30T08:58:23.102Z,52.21
2023-10-30T08:59:22.094Z,55.11
2023-10-30T09:00:22.098Z,53.98
2023-10-30T09:01:21.993Z,51.72
2023-10-30T09:02:23.304Z,53.17
2023-10-30T09:03:22.085Z,54.62
2023-10-30T09:04:22.203Z,53.50
2023-10-30T09:05:22.228Z,53.17
2023-10-30T09:06:22.079Z,54.14
2023-10-30T09:07:21.992Z,52.69
2023-10-30T09:08:23.195Z,52.85
2023-10-30T09:09:21.999Z,51.24
2023-10-30T09:10:21.951Z,52.21
2023-10-30T09:11:21.986Z,53.17
2023-10-30T09:12:21.983Z,52.05
2023-10-30T09:13:21.920Z,52.37
2023-10-30T09:14:23.189Z,52.85
2023-10-30T09:15:21.971Z,54.30
2023-10-30T09:16:21.964Z,53.50
2023-10-30T09:17:21.966Z,51.88
2023-10-30T09:18:21.926Z,51.40
2023-10-30T09:19:22.917Z,52.53
2023-10-30T09:20:21.941Z,51.88
2023-10-30T09:21:21.973Z,51.56
2023-10-30T09:22:21.905Z,53.50
2023-10-30T09:23:21.875Z,53.98
2023-10-30T09:24:21.944Z,53.66
2023-10-30T09:25:21.884Z,53.01
2023-10-30T09:26:21.869Z,54.95
2023-10-30T09:27:21.923Z,53.50
2023-10-30T09:28:23.728Z,53.01
2023-10-30T09:29:21.832Z,54.62
2023-10-30T09:30:21.887Z,52.85
2023-10-30T09:31:21.853Z,52.05
2023-10-30T09:32:21.894Z,53.33
2023-10-30T09:33:21.944Z,51.72
2023-10-30T09:34:23.090Z,51.56
2023-10-30T09:35:21.795Z,53.98
2023-10-30T09:36:21.838Z,53.66
2023-10-30T09:37:21.768Z,54.95
2023-10-30T09:38:21.757Z,56.07
2023-10-30T09:39:21.842Z,54.30
2023-10-30T09:40:23.416Z,53.33
2023-10-30T09:41:21.851Z,54.95
2023-10-30T09:42:21.803Z,55.75
2023-10-30T09:43:21.781Z,52.05
2023-10-30T09:44:21.704Z,53.33
2023-10-30T09:45:21.857Z,52.05
2023-10-30T09:46:21.756Z,55.43
2023-10-30T09:47:21.685Z,51.88
2023-10-30T09:48:22.482Z,51.24
2023-10-30T09:49:21.748Z,53.01
2023-10-30T09:50:21.735Z,53.50
2023-10-30T09:51:21.683Z,54.46
2023-10-30T09:52:21.710Z,53.98
2023-10-30T09:53:21.651Z,52.21
2023-10-30T09:54:21.780Z,51.56
2023-10-30T09:55:21.633Z,52.21
2023-10-30T09:56:21.629Z,52.85
2023-10-30T09:57:21.668Z,53.33
2023-10-30T09:58:21.627Z,50.60
2023-10-30T09:59:21.634Z,53.98
2023-10-30T10:00:21.685Z,53.82
2023-10-30T10:01:21.815Z,53.98
2023-10-30T10:02:21.701Z,55.11
2023-10-30T10:03:21.785Z,56.07
2023-10-30T10:04:21.670Z,55.75
2023-10-30T10:05:21.589Z,53.01
2023-10-30T10:06:21.676Z,49.95
2023-10-30T10:07:21.582Z,54.30
2023-10-30T10:08:21.599Z,51.40
2023-10-30T10:09:21.557Z,54.14
2023-10-30T10:10:21.560Z,53.01
2023-10-30T10:11:21.516Z,52.05
2023-10-30T10:12:21.669Z,52.37
2023-10-30T10:13:21.607Z,53.33
2023-10-30T10:14:21.605Z,53.98
2023-10-30T10:15:21.872Z,52.69
2023-10-30T10:16:21.524Z,51.56
2023-10-30T10:17:21.516Z,51.40
2023-10-30T10:18:21.513Z,51.40
2023-10-30T10:19:21.535Z,50.43
2023-10-30T10:20:21.505Z,50.92
2023-10-30T10:21:21.510Z,51.72
2023-10-30T10:22:21.490Z,53.33
2023-10-30T10:23:21.483Z,54.14
2023-10-30T10:24:21.434Z,53.33
2023-10-30T10:25:21.606Z,53.50
2023-10-30T10:26:21.504Z,54.14
2023-10-30T10:27:21.488Z,53.17
2023-10-30T10:28:21.416Z,52.69
2023-10-30T10:29:21.473Z,51.88
2023-10-30T10:30:21.474Z,50.76
2023-10-30T10:31:21.425Z,52.69
2023-10-30T10:32:22.375Z,49.47
2023-10-30T10:33:21.433Z,52.21
2023-10-30T10:34:21.412Z,52.05
2023-10-30T10:35:21.378Z,53.01
2023-10-30T10:36:21.402Z,54.62
2023-10-30T10:37:21.338Z,57.04
2023-10-30T10:38:21.348Z,53.66
2023-10-30T10:39:21.338Z,52.05
2023-10-30T10:40:21.382Z,52.53
2023-10-30T10:41:21.312Z,52.37
2023-10-30T10:42:21.367Z,50.76
2023-10-30T10:43:21.294Z,51.88
2023-10-30T10:44:21.257Z,51.56
2023-10-30T10:45:21.324Z,51.40
2023-10-30T10:46:21.316Z,53.33
2023-10-30T10:47:21.404Z,53.17
2023-10-30T10:48:21.286Z,51.56
2023-10-30T10:49:21.224Z,51.56
2023-10-30T10:50:21.221Z,50.27
2023-10-30T10:51:21.270Z,52.69
2023-10-30T10:52:23.997Z,53.50
2023-10-30T10:53:21.232Z,52.85
2023-10-30T10:54:21.231Z,53.17
2023-10-30T10:55:21.192Z,52.53
2023-10-30T10:56:21.217Z,52.37
2023-10-30T10:57:21.207Z,52.85
2023-10-30T10:58:21.208Z,51.88
2023-10-30T10:59:21.143Z,51.56
2023-10-30T11:00:21.436Z,52.05
2023-10-30T11:01:21.186Z,52.53
2023-10-30T11:02:21.192Z,50.27
2023-10-30T11:03:21.244Z,51.08
2023-10-30T11:04:21.241Z,49.47
2023-10-30T11:05:21.118Z,49.47
2023-10-30T11:06:21.116Z,52.37
2023-10-30T11:07:21.149Z,50.27
2023-10-30T11:08:21.099Z,50.11
2023-10-30T11:09:21.118Z,53.17
2023-10-30T11:10:21.136Z,51.08
2023-10-30T11:11:21.100Z,49.95
2023-10-30T11:12:21.083Z,51.56
2023-10-30T11:13:21.090Z,52.05
2023-10-30T11:14:21.052Z,50.43
2023-10-30T11:15:21.054Z,49.63
2023-10-30T11:16:21.124Z,50.27
2023-10-30T11:17:21.025Z,51.88
2023-10-30T11:18:21.001Z,50.92
2023-10-30T11:19:21.005Z,52.05
2023-10-30T11:20:21.035Z,53.82
2023-10-30T11:21:20.970Z,51.08
2023-10-30T11:22:20.992Z,50.92
2023-10-30T11:23:20.980Z,50.76
2023-10-30T11:24:20.957Z,51.72
2023-10-30T11:25:22.570Z,52.53
2023-10-30T11:26:21.004Z,49.63
2023-10-30T11:27:20.931Z,50.76
2023-10-30T11:28:23.208Z,53.01
2023-10-30T11:29:20.930Z,49.95
2023-10-30T11:30:20.998Z,51.56
2023-10-30T11:31:21.084Z,50.60
2023-10-30T11:32:20.917Z,49.31
2023-10-30T11:33:20.928Z,52.05
2023-10-30T11:34:20.882Z,46.89
2023-10-30T11:35:20.922Z,48.02
2023-10-30T11:36:20.875Z,48.82
2023-10-30T11:37:20.836Z,50.60
2023-10-30T11:38:20.881Z,51.56
2023-10-30T11:39:20.841Z,50.60
2023-10-30T11:40:20.849Z,49.31
2023-10-30T11:41:20.878Z,50.11
2023-10-30T11:42:20.796Z,53.17
2023-10-30T11:43:20.832Z,49.95
2023-10-30T11:44:20.786Z,49.47
2023-10-30T11:45:20.822Z,53.01
2023-10-30T11:46:20.858Z,50.76
2023-10-30T11:47:20.812Z,53.17
2023-10-30T11:48:20.756Z,52.69
2023-10-30T11:49:20.804Z,53.01
2023-10-30T11:50:20.766Z,49.63
2023-10-30T11:51:20.755Z,52.85
2023-10-30T11:52:20.792Z,49.79
2023-10-30T11:53:20.773Z,48.50
2023-10-30T11:54:20.709Z,51.72
2023-10-30T11:55:20.790Z,48.66
2023-10-30T11:56:20.723Z,52.53
2023-10-30T11:57:20.704Z,52.53
2023-10-30T11:58:20.735Z,53.33
2023-10-30T11:59:20.707Z,55.59
2023-10-30T12:00:20.667Z,51.56
2023-10-30T12:01:20.714Z,52.53
2023-10-30T12:02:20.659Z,50.60
2023-10-30T12:03:20.712Z,51.72
2023-10-30T12:04:20.705Z,48.18
2023-10-30T12:05:20.675Z,49.31
2023-10-30T12:06:20.613Z,50.43
2023-10-30T12:07:20.646Z,49.47
2023-10-30T12:08:20.612Z,53.17
2023-10-30T12:09:20.611Z,51.56
2023-10-30T12:10:20.624Z,51.56
2023-10-30T12:11:20.606Z,51.72
2023-10-30T12:12:20.600Z,48.34
2023-10-30T12:13:20.563Z,49.47
2023-10-30T12:14:20.616Z,49.63
2023-10-30T12:15:20.578Z,49.79
2023-10-30T12:16:20.671Z,46.89
2023-10-30T12:17:20.576Z,47.37
2023-10-30T12:18:20.567Z,50.60
2023-10-30T12:19:20.563Z,50.11
2023-10-30T12:20:20.536Z,48.82
2023-10-30T12:21:20.584Z,49.47
2023-10-30T12:22:20.510Z,49.15
2023-10-30T12:23:20.497Z,48.66
2023-10-30T12:24:20.621Z,46.57
2023-10-30T12:25:20.510Z,46.73
2023-10-30T12:26:20.497Z,50.92
2023-10-30T12:27:20.478Z,48.82
2023-10-30T12:28:20.462Z,47.21
2023-10-30T12:29:20.459Z,50.92
2023-10-30T12:30:20.457Z,51.24
2023-10-30T12:31:20.552Z,51.08
2023-10-30T12:32:20.457Z,48.02
2023-10-30T12:33:20.408Z,50.60
2023-10-30T12:34:20.403Z,49.15
2023-10-30T12:35:20.422Z,49.95
2023-10-30T12:36:20.479Z,51.56
2023-10-30T12:37:20.409Z,51.56
2023-10-30T12:38:20.382Z,49.15
2023-10-30T12:39:20.375Z,45.92
2023-10-30T12:40:20.422Z,50.76
2023-10-30T12:41:20.578Z,48.82
2023-10-30T12:42:20.384Z,48.18
2023-10-30T12:43:20.384Z,49.79
2023-10-30T12:44:20.364Z,48.66
2023-10-30T12:45:20.338Z,49.79
2023-10-30T12:46:20.406Z,49.31
2023-10-30T12:47:20.331Z,49.63
2023-10-30T12:48:20.317Z,48.66
2023-10-30T12:49:20.320Z,49.63
2023-10-30T12:50:20.292Z,51.56
2023-10-30T12:51:20.379Z,48.82
2023-10-30T12:52:20.280Z,50.43